Time;durP1;ratioP1;P1;durP2;ratioP2;P2;SDS_P1;SDS_P2;PMS_P1;PMS_P2;Temp;Humidity;BMP_temperature;BMP_pressure;BME280_temperature;BME280_humidity;BME280_pressure;Samples;Min_cycle;Max_cycle;Signal;HPM_P1;HPM_P2
2021/07/13 00:00:44;;;;;;;10.67;9.53;;;20.30;99.90;;;;;;5090487;28;20213;-44
2021/07/13 00:03:11;;;;;;;9.20;8.40;;;20.30;99.90;;;;;;5103930;28;20652;-46
2021/07/13 00:05:39;;;;;;;9.60;8.70;;;20.20;99.90;;;;;;5106051;28;20658;-45
2021/07/13 00:08:06;;;;;;;10.33;9.33;;;20.20;99.90;;;;;;5090665;28;20251;-48
2021/07/13 00:10:38;;;;;;;9.67;8.73;;;20.20;99.90;;;;;;5106557;28;20195;-44
2021/07/13 00:13:04;;;;;;;11.63;9.00;;;20.20;99.90;;;;;;5104022;28;20201;-45
2021/07/13 00:15:34;;;;;;;9.57;8.60;;;20.20;99.90;;;;;;5107035;28;20583;-47
2021/07/13 00:18:01;;;;;;;9.43;8.60;;;20.20;99.90;;;;;;5095407;28;20436;-43
2021/07/13 00:20:28;;;;;;;11.50;8.73;;;20.10;99.90;;;;;;5107017;28;20217;-42
2021/07/13 00:22:55;;;;;;;9.87;9.03;;;20.10;99.90;;;;;;5088940;28;21247;-44
2021/07/13 00:25:22;;;;;;;11.17;9.67;;;20.10;99.90;;;;;;5106626;28;20193;-47
2021/07/13 00:27:50;;;;;;;10.37;9.37;;;20.10;99.90;;;;;;5101166;28;20196;-44
2021/07/13 00:30:19;;;;;;;10.33;9.30;;;20.10;99.90;;;;;;5101127;28;20203;-43
2021/07/13 00:32:46;;;;;;;10.93;9.10;;;20.10;99.90;;;;;;5086815;28;20232;-47
2021/07/13 00:35:13;;;;;;;11.33;10.13;;;20.10;99.90;;;;;;5106039;28;20412;-45
2021/07/13 00:37:41;;;;;;;11.20;10.10;;;20.00;99.90;;;;;;5105602;28;20634;-45
2021/07/13 00:40:10;;;;;;;10.20;9.37;;;20.00;99.90;;;;;;5091127;28;20400;-44
2021/07/13 00:42:37;;;;;;;12.43;9.40;;;20.00;99.90;;;;;;5105745;28;20213;-47
2021/07/13 00:45:06;;;;;;;10.47;9.40;;;20.00;99.90;;;;;;5103076;28;20321;-42
2021/07/13 00:47:33;;;;;;;11.13;10.03;;;20.00;99.90;;;;;;5092780;28;20872;-43
2021/07/13 00:50:00;;;;;;;11.27;10.17;;;20.00;99.90;;;;;;5081857;28;20182;-46
2021/07/13 00:52:27;;;;;;;10.83;9.83;;;20.00;99.90;;;;;;5085977;28;20577;-43
2021/07/13 00:54:55;;;;;;;12.27;10.17;;;20.00;99.90;;;;;;5071452;28;20579;-47
2021/07/13 00:57:22;;;;;;;11.47;10.47;;;20.00;99.90;;;;;;5105988;28;20189;-45
2021/07/13 00:59:49;;;;;;;10.77;9.43;;;20.00;99.90;;;;;;5102631;27;20202;-44
2021/07/13 01:02:18;;;;;;;15.40;11.37;;;20.00;99.90;;;;;;5103764;28;20197;-43
2021/07/13 01:04:48;;;;;;;13.13;10.37;;;20.00;99.90;;;;;;5090616;28;20660;-45
2021/07/13 01:07:21;;;;;;;11.33;10.33;;;20.00;99.90;;;;;;5105208;27;20189;-44
2021/07/13 01:09:58;;;;;;;12.47;10.63;;;20.00;99.90;;;;;;5102966;28;20181;-46
2021/07/13 01:12:36;;;;;;;12.00;9.90;;;20.10;99.90;;;;;;5092824;28;20220;-43
2021/07/13 01:15:07;;;;;;;10.80;9.80;;;20.00;99.90;;;;;;5095677;28;20320;-44
2021/07/13 01:17:38;;;;;;;10.80;9.80;;;20.10;99.90;;;;;;5105915;28;20204;-43
2021/07/13 01:20:45;;;;;;;11.43;10.27;;;20.10;99.90;;;;;;5093926;28;20239;-45
2021/07/13 01:23:20;;;;;;;11.40;10.40;;;20.10;99.90;;;;;;5104271;28;20228;-43
2021/07/13 01:25:55;;;;;;;11.80;10.70;;;20.10;99.90;;;;;;5102884;28;20200;-48
2021/07/13 01:28:26;;;;;;;11.60;10.30;;;20.10;99.90;;;;;;5092335;28;20197;-42
2021/07/13 01:30:57;;;;;;;11.47;10.37;;;20.10;99.90;;;;;;5101263;28;20193;-46
2021/07/13 01:33:27;;;;;;;11.90;10.73;;;20.10;99.90;;;;;;5096435;28;20217;-43
2021/07/13 01:35:58;;;;;;;11.53;10.40;;;20.10;99.90;;;;;;5088093;28;20258;-45
2021/07/13 01:38:27;;;;;;;11.93;10.40;;;20.10;99.90;;;;;;5098792;28;20583;-43
2021/07/13 01:41:02;;;;;;;11.90;10.77;;;20.10;99.90;;;;;;5099164;28;20241;-46
2021/07/13 01:43:31;;;;;;;11.40;10.17;;;20.00;99.90;;;;;;5094147;28;20217;-44
2021/07/13 01:45:58;;;;;;;13.53;10.80;;;20.10;99.90;;;;;;5100687;28;20224;-46
2021/07/13 01:48:27;;;;;;;12.30;9.97;;;20.10;99.90;;;;;;5105430;28;20601;-43
2021/07/13 01:50:56;;;;;;;11.90;9.90;;;20.10;99.90;;;;;;5084818;28;20286;-45
2021/07/13 01:53:24;;;;;;;11.57;9.97;;;20.00;99.90;;;;;;5105362;28;20216;-44
2021/07/13 01:55:54;;;;;;;11.40;10.20;;;20.10;99.90;;;;;;5094575;28;20209;-46
2021/07/13 01:58:23;;;;;;;11.57;9.93;;;20.10;99.90;;;;;;5105393;28;20212;-45
2021/07/13 02:00:52;;;;;;;10.77;9.67;;;20.10;99.90;;;;;;5088183;28;20209;-46
2021/07/13 02:03:23;;;;;;;12.00;10.93;;;20.10;99.90;;;;;;5099762;28;20216;-43
2021/07/13 02:05:50;;;;;;;11.40;10.23;;;20.00;99.90;;;;;;5085741;28;20541;-48
2021/07/13 02:08:17;;;;;;;12.63;10.43;;;20.00;99.90;;;;;;5083675;28;20202;-44
2021/07/13 02:10:44;;;;;;;11.67;10.17;;;20.00;99.90;;;;;;5082045;28;20750;-46
2021/07/13 02:13:11;;;;;;;13.77;11.10;;;20.00;99.90;;;;;;5082578;28;20319;-47
2021/07/13 02:15:39;;;;;;;14.50;11.80;;;20.00;99.90;;;;;;5079183;28;20206;-46
2021/07/13 02:18:07;;;;;;;12.30;10.97;;;20.00;99.90;;;;;;5101986;28;20279;-43
2021/07/13 02:20:34;;;;;;;11.60;10.60;;;20.00;99.90;;;;;;5096688;28;20225;-43
2021/07/13 02:23:01;;;;;;;15.47;11.43;;;19.90;99.90;;;;;;5098971;28;20449;-44
2021/07/13 02:25:28;;;;;;;14.33;11.40;;;19.90;99.90;;;;;;5104542;28;20554;-45
2021/07/13 02:28:01;;;;;;;13.43;12.03;;;19.90;99.90;;;;;;5092961;28;20484;-46
2021/07/13 02:30:29;;;;;;;13.00;11.20;;;19.90;99.90;;;;;;5090768;28;20198;-43
2021/07/13 02:33:01;;;;;;;12.97;11.57;;;19.80;99.90;;;;;;5091672;28;20480;-44
2021/07/13 02:35:35;;;;;;;13.87;12.47;;;19.80;99.90;;;;;;5104252;27;20197;-42
2021/07/13 02:38:04;;;;;;;13.83;12.53;;;19.80;99.90;;;;;;5075900;28;20197;-43
2021/07/13 02:40:31;;;;;;;13.93;12.57;;;19.80;99.90;;;;;;5083662;28;20229;-43
2021/07/13 02:42:59;;;;;;;13.40;12.17;;;19.80;99.90;;;;;;5079503;28;20206;-45
2021/07/13 02:45:26;;;;;;;13.53;12.17;;;19.80;99.90;;;;;;5083839;28;20198;-43
2021/07/13 02:47:55;;;;;;;14.60;11.93;;;19.80;99.90;;;;;;5085907;28;20690;-46
2021/07/13 02:50:23;;;;;;;14.63;13.23;;;19.80;99.90;;;;;;5103333;28;20555;-43
2021/07/13 02:52:52;;;;;;;14.10;12.63;;;19.80;99.90;;;;;;5076838;28;20229;-47
2021/07/13 02:55:22;;;;;;;15.57;11.80;;;19.80;99.90;;;;;;5083675;28;20670;-43
2021/07/13 02:57:51;;;;;;;15.87;13.10;;;19.70;99.90;;;;;;5083019;28;20201;-44
2021/07/13 03:00:20;;;;;;;20.87;14.33;;;19.70;99.90;;;;;;5103317;28;20201;-46
2021/07/13 03:02:49;;;;;;;15.93;14.10;;;19.70;99.90;;;;;;5086996;28;20229;-45
2021/07/13 03:05:18;;;;;;;22.43;15.77;;;19.70;99.90;;;;;;5103138;28;20659;-44
2021/07/13 03:07:45;;;;;;;16.70;14.37;;;19.70;99.90;;;;;;5086396;28;20233;-45
2021/07/13 03:10:13;;;;;;;17.50;15.70;;;19.70;99.90;;;;;;5081980;28;20196;-45
2021/07/13 03:12:43;;;;;;;19.30;16.07;;;19.70;99.90;;;;;;5082076;28;20217;-46
2021/07/13 03:15:10;;;;;;;19.33;16.93;;;19.70;99.90;;;;;;5081279;28;20302;-44
2021/07/13 03:17:37;;;;;;;22.63;17.07;;;19.70;99.90;;;;;;5077918;28;20205;-45
2021/07/13 03:20:04;;;;;;;20.87;16.83;;;19.70;99.90;;;;;;5100002;28;20756;-43
2021/07/13 03:22:37;;;;;;;22.13;17.20;;;19.70;99.90;;;;;;5090089;28;20209;-44
2021/07/13 03:25:06;;;;;;;20.30;17.53;;;19.60;99.90;;;;;;5080207;28;20399;-42
2021/07/13 03:27:35;;;;;;;20.53;17.90;;;19.60;99.90;;;;;;5082446;28;20198;-46
2021/07/13 03:30:03;;;;;;;23.40;18.87;;;19.60;99.90;;;;;;5099308;28;20810;-44
2021/07/13 03:32:34;;;;;;;19.33;17.30;;;19.60;99.90;;;;;;5103296;28;20185;-43
2021/07/13 03:35:01;;;;;;;20.00;18.00;;;19.60;99.90;;;;;;5087176;28;20201;-46
2021/07/13 03:37:28;;;;;;;25.77;19.90;;;19.60;99.90;;;;;;5090051;28;20202;-44
2021/07/13 03:39:56;;;;;;;20.60;18.23;;;19.60;99.90;;;;;;5078604;28;20190;-43
2021/07/13 03:42:23;;;;;;;21.13;18.83;;;19.60;99.90;;;;;;5082783;28;20197;-45
2021/07/13 03:44:52;;;;;;;22.80;18.17;;;19.60;99.90;;;;;;5079462;28;20205;-45
2021/07/13 03:47:20;;;;;;;19.90;17.27;;;19.60;99.90;;;;;;5083358;28;20550;-46
2021/07/13 03:49:49;;;;;;;22.13;18.00;;;19.70;99.90;;;;;;5085201;28;20208;-45
2021/07/13 03:52:15;;;;;;;22.70;18.77;;;19.70;99.90;;;;;;5094246;28;20681;-44
2021/07/13 03:54:42;;;;;;;25.30;19.77;;;19.70;99.90;;;;;;5101050;28;20192;-47
2021/07/13 03:57:09;;;;;;;24.30;19.57;;;19.70;99.90;;;;;;5101043;28;20197;-42
2021/07/13 03:59:36;;;;;;;23.53;18.67;;;19.60;99.90;;;;;;5102261;28;20212;-45
2021/07/13 04:02:04;;;;;;;22.73;17.67;;;19.70;99.90;;;;;;5099095;28;20341;-42
2021/07/13 04:04:31;;;;;;;19.23;16.97;;;19.70;99.90;;;;;;5089751;28;20222;-43
2021/07/13 04:06:58;;;;;;;22.33;17.63;;;19.70;99.90;;;;;;5098421;28;20212;-46
2021/07/13 04:09:24;;;;;;;19.03;17.03;;;19.70;99.90;;;;;;5082662;28;20560;-43
2021/07/13 04:11:51;;;;;;;23.13;18.37;;;19.70;99.90;;;;;;5079260;28;20191;-47
2021/07/13 04:14:17;;;;;;;19.47;17.17;;;19.70;99.90;;;;;;5084831;28;20201;-46
2021/07/13 04:16:44;;;;;;;20.03;16.80;;;19.60;99.90;;;;;;5076542;28;20198;-47
2021/07/13 04:19:12;;;;;;;20.13;17.70;;;19.70;99.90;;;;;;5081141;28;20437;-42
2021/07/13 04:21:39;;;;;;;19.70;17.07;;;19.60;99.90;;;;;;5091525;28;20217;-45
2021/07/13 04:24:06;;;;;;;20.67;17.23;;;19.60;99.90;;;;;;5091848;28;20495;-44
2021/07/13 04:26:33;;;;;;;21.00;18.70;;;19.70;99.90;;;;;;5102735;28;20205;-46
2021/07/13 04:28:59;;;;;;;19.23;17.03;;;19.70;99.90;;;;;;5092336;28;20197;-44
2021/07/13 04:31:26;;;;;;;20.90;17.07;;;19.70;99.90;;;;;;5101364;28;20578;-46
2021/07/13 04:33:52;;;;;;;19.80;17.70;;;19.70;99.90;;;;;;5077659;28;20213;-46
2021/07/13 04:36:20;;;;;;;22.47;16.73;;;19.70;99.90;;;;;;5096395;28;20197;-43
2021/07/13 04:38:47;;;;;;;19.47;15.87;;;19.70;99.90;;;;;;5098960;28;20201;-50
2021/07/13 04:41:13;;;;;;;20.93;17.77;;;19.70;99.90;;;;;;5091506;28;20435;-42
2021/07/13 04:43:40;;;;;;;21.53;17.33;;;19.80;99.90;;;;;;5102731;28;20217;-45
2021/07/13 04:46:07;;;;;;;20.37;16.67;;;19.80;99.90;;;;;;5092710;28;20483;-46
2021/07/13 04:48:33;;;;;;;21.57;16.97;;;19.80;99.90;;;;;;5086554;28;20201;-45
2021/07/13 04:51:00;;;;;;;22.37;17.80;;;19.80;99.90;;;;;;5079976;28;20198;-43
2021/07/13 04:53:28;;;;;;;24.83;18.17;;;19.80;99.90;;;;;;5106418;27;20217;-46
2021/07/13 04:55:54;;;;;;;21.33;18.17;;;19.90;99.90;;;;;;5080416;28;20209;-44
2021/07/13 04:58:21;;;;;;;19.93;17.30;;;19.80;99.90;;;;;;5097863;28;20190;-43
2021/07/13 05:00:47;;;;;;;19.87;17.73;;;19.80;99.90;;;;;;5081805;28;20225;-45
2021/07/13 05:03:14;;;;;;;21.47;17.50;;;19.90;99.90;;;;;;5083965;28;20588;-42
2021/07/13 05:05:41;;;;;;;19.20;16.40;;;19.90;99.90;;;;;;5078474;28;20209;-47
2021/07/13 05:08:07;;;;;;;21.70;18.77;;;19.90;99.90;;;;;;5093824;28;20193;-47
2021/07/13 05:10:35;;;;;;;18.23;16.43;;;19.90;99.90;;;;;;5105604;28;20197;-44
2021/07/13 05:13:03;;;;;;;19.87;17.87;;;20.00;99.90;;;;;;5073958;28;20433;-43
2021/07/13 05:15:30;;;;;;;19.20;17.30;;;20.00;99.90;;;;;;5085188;28;20198;-45
2021/07/13 05:17:56;;;;;;;23.40;18.17;;;20.00;99.90;;;;;;5092165;28;20483;-44
2021/07/13 05:20:23;;;;;;;24.90;17.77;;;20.00;99.90;;;;;;5100752;28;21566;-44
2021/07/13 05:22:57;;;;;;;19.43;17.33;;;20.00;99.90;;;;;;5087087;28;20228;-45
2021/07/13 05:25:24;;;;;;;21.87;17.87;;;20.00;99.90;;;;;;5095537;28;20202;-43
2021/07/13 05:27:52;;;;;;;20.03;17.23;;;20.10;99.90;;;;;;5074899;28;20210;-45
2021/07/13 05:30:19;;;;;;;18.93;16.50;;;20.10;99.90;;;;;;5083008;28;20204;-45
2021/07/13 05:32:46;;;;;;;20.07;17.43;;;20.10;99.90;;;;;;5085753;28;20240;-46
2021/07/13 05:35:12;;;;;;;23.57;18.13;;;20.20;99.90;;;;;;5082126;28;20278;-47
2021/07/13 05:37:39;;;;;;;22.33;17.00;;;20.30;99.90;;;;;;5088237;28;20209;-46
2021/07/13 05:40:07;;;;;;;26.07;18.57;;;20.30;99.90;;;;;;5097150;28;20194;-46
2021/07/13 05:42:34;;;;;;;18.87;16.83;;;20.30;99.90;;;;;;5086037;28;20433;-47
2021/07/13 05:45:03;;;;;;;23.47;17.20;;;20.30;99.90;;;;;;5090806;27;20205;-42
2021/07/13 05:47:30;;;;;;;21.37;17.80;;;20.30;99.90;;;;;;5077844;28;20201;-45
2021/07/13 05:49:57;;;;;;;21.33;18.87;;;20.40;99.90;;;;;;5094362;28;20284;-42
2021/07/13 05:52:23;;;;;;;21.00;18.80;;;20.40;99.90;;;;;;5083854;28;20201;-45
2021/07/13 05:54:50;;;;;;;21.77;17.87;;;20.50;99.90;;;;;;5091305;28;20239;-47
2021/07/13 05:57:17;;;;;;;20.40;17.83;;;20.40;99.90;;;;;;5095922;28;20205;-48
2021/07/13 05:59:44;;;;;;;19.30;16.40;;;20.40;99.90;;;;;;5087615;28;20785;-43
2021/07/13 06:02:12;;;;;;;19.53;17.43;;;20.50;99.90;;;;;;5088883;28;20233;-47
2021/07/13 06:04:39;;;;;;;21.77;18.03;;;20.50;99.90;;;;;;5088427;28;20229;-43
2021/07/13 06:07:06;;;;;;;18.47;16.53;;;20.50;99.90;;;;;;5099092;28;20197;-42
2021/07/13 06:09:32;;;;;;;18.87;16.60;;;20.50;99.90;;;;;;5080276;28;20425;-44
2021/07/13 06:12:00;;;;;;;20.07;17.37;;;20.60;99.90;;;;;;5097365;28;20185;-44
2021/07/13 06:14:27;;;;;;;19.73;17.53;;;20.60;99.90;;;;;;5083383;28;20230;-47
2021/07/13 06:16:54;;;;;;;22.50;17.70;;;20.60;99.90;;;;;;5092367;28;20201;-46
2021/07/13 06:19:22;;;;;;;21.80;17.80;;;20.70;99.90;;;;;;5084345;28;20221;-48
2021/07/13 06:21:48;;;;;;;21.57;16.93;;;20.80;99.90;;;;;;5100712;28;20314;-45
2021/07/13 06:24:15;;;;;;;30.70;18.13;;;20.80;99.90;;;;;;5085701;28;20217;-45
2021/07/13 06:26:42;;;;;;;18.30;16.30;;;20.80;99.90;;;;;;5082647;28;20445;-42
2021/07/13 06:29:08;;;;;;;19.13;16.67;;;20.80;99.90;;;;;;5087200;28;20213;-43
2021/07/13 06:31:35;;;;;;;26.07;18.27;;;20.90;99.90;;;;;;5090748;28;20186;-43
2021/07/13 06:34:02;;;;;;;18.53;16.63;;;20.90;99.90;;;;;;5095272;28;20228;-45
2021/07/13 06:36:30;;;;;;;19.40;15.93;;;20.90;99.90;;;;;;5098056;28;20208;-46
2021/07/13 06:38:56;;;;;;;18.23;16.20;;;21.00;99.90;;;;;;5087958;28;20197;-44
2021/07/13 06:41:23;;;;;;;17.40;15.50;;;21.00;99.90;;;;;;5070345;28;20567;-45
2021/07/13 06:43:49;;;;;;;17.17;15.30;;;21.10;99.90;;;;;;5085387;28;20213;-49
2021/07/13 06:46:16;;;;;;;17.10;15.33;;;21.20;99.90;;;;;;5100205;28;20228;-46
2021/07/13 06:48:43;;;;;;;16.87;15.27;;;21.20;99.90;;;;;;5080383;28;20202;-48
2021/07/13 06:51:10;;;;;;;15.70;14.32;;;21.30;99.90;;;;;;5101323;28;20366;-44
2021/07/13 06:53:38;;;;;;;16.33;14.75;;;21.40;99.90;;;;;;5078764;28;20588;-49
2021/07/13 06:56:05;;;;;;;15.95;13.95;;;21.40;99.90;;;;;;5082164;28;20404;-46
2021/07/13 06:58:31;;;;;;;15.63;14.15;;;21.60;99.90;;;;;;5098243;28;20193;-49
2021/07/13 07:00:58;;;;;;;16.97;14.27;;;21.60;99.90;;;;;;5081485;28;20287;-46
2021/07/13 07:03:25;;;;;;;16.30;14.18;;;21.70;99.90;;;;;;5096067;28;20216;-44
2021/07/13 07:05:51;;;;;;;14.60;13.30;;;21.80;99.90;;;;;;5099076;28;20194;-47
2021/07/13 07:08:18;;;;;;;14.40;12.88;;;21.80;99.90;;;;;;5082327;28;20230;-46
2021/07/13 07:10:46;;;;;;;15.23;13.82;;;21.90;99.90;;;;;;5085853;28;20216;-47
2021/07/13 07:13:13;;;;;;;15.52;13.43;;;21.90;99.90;;;;;;5099419;28;20232;-43
2021/07/13 07:15:40;;;;;;;16.08;12.82;;;21.90;99.90;;;;;;5088664;28;20205;-46
2021/07/13 07:18:06;;;;;;;14.50;12.70;;;21.90;99.90;;;;;;5097973;28;20405;-43
2021/07/13 07:20:33;;;;;;;15.00;13.52;;;22.00;99.90;;;;;;5099435;28;20671;-44
2021/07/13 07:23:00;;;;;;;14.90;13.10;;;22.00;99.90;;;;;;5092868;28;20626;-43
2021/07/13 07:25:30;;;;;;;14.23;13.00;;;22.10;99.90;;;;;;5087597;28;20214;-44
2021/07/13 07:27:59;;;;;;;13.93;12.82;;;22.10;99.90;;;;;;5091015;28;20412;-47
2021/07/13 07:30:27;;;;;;;14.40;13.10;;;22.20;99.90;;;;;;5088447;28;20540;-44
2021/07/13 07:32:55;;;;;;;13.55;12.38;;;22.20;99.90;;;;;;5085374;28;20221;-47
2021/07/13 07:35:21;;;;;;;15.15;13.55;;;22.30;99.90;;;;;;5091645;28;20174;-45
2021/07/13 07:37:48;;;;;;;12.93;11.73;;;22.40;99.90;;;;;;5098842;28;20200;-46
2021/07/13 07:40:20;;;;;;;14.27;12.98;;;22.40;99.90;;;;;;5086392;28;20201;-44
2021/07/13 07:42:48;;;;;;;13.27;11.88;;;22.50;99.90;;;;;;5095345;28;20240;-49
2021/07/13 07:45:17;;;;;;;13.55;12.25;;;22.60;99.90;;;;;;5081651;28;20292;-43
2021/07/13 07:47:44;;;;;;;12.98;11.77;;;22.60;99.90;;;;;;5080336;28;20208;-45
2021/07/13 07:50:12;;;;;;;14.00;12.60;;;22.60;99.90;;;;;;5099626;28;20320;-44
2021/07/13 07:52:39;;;;;;;13.90;12.60;;;22.70;99.90;;;;;;5101371;28;20221;-47
2021/07/13 07:55:07;;;;;;;13.02;11.73;;;22.80;99.90;;;;;;5082173;28;20213;-46
2021/07/13 07:57:34;;;;;;;12.80;11.70;;;22.80;99.90;;;;;;5103031;28;20677;-49
2021/07/13 08:00:01;;;;;;;12.32;11.32;;;22.90;99.90;;;;;;5095744;28;20211;-43
2021/07/13 08:02:40;;;;;;;13.98;12.57;;;22.90;99.90;;;;;;5083588;28;20233;-45
2021/07/13 08:05:08;;;;;;;13.15;11.93;;;22.90;99.90;;;;;;5094300;28;20243;-43
2021/07/13 08:07:35;;;;;;;12.43;11.23;;;23.00;99.90;;;;;;5094159;28;20205;-43
2021/07/13 08:10:02;;;;;;;12.43;11.32;;;23.10;99.90;;;;;;5093624;28;20189;-43
2021/07/13 08:12:29;;;;;;;12.00;10.60;;;23.10;99.90;;;;;;5086819;28;20566;-44
2021/07/13 08:14:55;;;;;;;12.55;11.27;;;23.20;99.90;;;;;;5101457;28;20204;-47
2021/07/13 08:17:22;;;;;;;12.48;11.18;;;23.30;99.90;;;;;;5098221;28;20186;-43
2021/07/13 08:19:50;;;;;;;12.43;11.43;;;23.40;99.90;;;;;;5081042;28;20202;-45
2021/07/13 08:22:16;;;;;;;11.55;10.65;;;23.50;99.90;;;;;;5098756;28;20944;-43
2021/07/13 08:24:43;;;;;;;11.55;10.55;;;23.60;99.90;;;;;;5098025;28;20201;-48
2021/07/13 08:27:11;;;;;;;10.70;9.80;;;23.80;99.90;;;;;;5084534;28;20445;-45
2021/07/13 08:29:38;;;;;;;12.90;11.52;;;23.90;99.90;;;;;;5105030;28;20197;-44
2021/07/13 08:32:05;;;;;;;11.50;10.60;;;23.90;99.90;;;;;;5095935;28;20786;-43
2021/07/13 08:34:34;;;;;;;10.77;9.98;;;23.90;99.90;;;;;;5093309;28;20581;-44
2021/07/13 08:37:03;;;;;;;11.60;10.50;;;23.90;99.90;;;;;;5090878;28;20818;-47
2021/07/13 08:39:30;;;;;;;10.75;9.82;;;23.90;99.90;;;;;;5089614;28;20198;-43
2021/07/13 08:41:56;;;;;;;11.10;10.13;;;24.00;99.90;;;;;;5087266;28;20563;-49
2021/07/13 08:44:23;;;;;;;10.48;9.38;;;24.10;99.90;;;;;;5088854;28;20228;-44
2021/07/13 08:46:49;;;;;;;11.10;10.10;;;24.20;99.90;;;;;;5102146;28;20548;-47
2021/07/13 08:49:16;;;;;;;11.02;10.23;;;24.30;99.90;;;;;;5097475;28;20205;-44
2021/07/13 08:51:43;;;;;;;11.52;10.52;;;24.50;99.90;;;;;;5094499;28;20186;-47
2021/07/13 08:54:11;;;;;;;10.27;9.38;;;24.60;99.90;;;;;;5092239;28;20241;-44
2021/07/13 08:56:38;;;;;;;10.77;9.85;;;24.70;99.90;;;;;;5101877;28;20212;-47
2021/07/13 08:59:06;;;;;;;9.93;9.00;;;24.70;99.90;;;;;;5083923;28;20220;-43
2021/07/13 09:01:33;;;;;;;10.43;9.52;;;24.80;99.90;;;;;;5098069;28;20672;-43
2021/07/13 09:04:04;;;;;;;9.30;8.50;;;24.80;99.90;;;;;;5088732;28;20230;-45
2021/07/13 09:06:49;;;;;;;11.18;8.73;;;24.90;99.90;;;;;;5086797;28;20201;-43
2021/07/13 09:09:27;;;;;;;9.70;8.90;;;24.90;99.90;;;;;;5085298;28;20457;-46
2021/07/13 09:12:12;;;;;;;10.13;8.95;;;25.00;99.90;;;;;;5087845;28;20185;-50
2021/07/13 09:14:47;;;;;;;9.82;8.82;;;25.00;99.90;;;;;;5086598;28;20693;-46
2021/07/13 09:17:26;;;;;;;9.27;8.50;;;25.10;99.90;;;;;;5095613;28;20580;-43
2021/07/13 09:20:01;;;;;;;9.25;8.52;;;25.10;99.90;;;;;;5093742;28;20193;-47
2021/07/13 09:22:28;;;;;;;8.95;8.32;;;25.20;99.90;;;;;;5085312;28;20714;-43
2021/07/13 09:24:56;;;;;;;9.25;8.38;;;25.30;99.90;;;;;;5081662;28;20190;-46
2021/07/13 09:27:23;;;;;;;9.25;8.50;;;25.40;99.90;;;;;;5088964;28;20205;-44
2021/07/13 09:29:51;;;;;;;10.40;9.23;;;25.40;99.90;;;;;;5076212;28;20201;-48
2021/07/13 09:32:24;;;;;;;9.52;8.85;;;25.40;99.90;;;;;;5098266;28;20216;-48
2021/07/13 09:34:53;;;;;;;10.48;8.73;;;25.40;99.90;;;;;;5093218;28;20270;-45
2021/07/13 09:37:25;;;;;;;9.27;8.57;;;25.40;99.90;;;;;;5091645;28;20207;-47
2021/07/13 09:40:08;;;;;;;9.27;8.57;;;25.30;99.90;;;;;;5085597;28;20190;-45
2021/07/13 09:42:37;;;;;;;9.10;8.30;;;25.30;99.90;;;;;;5100986;28;20213;-43
2021/07/13 09:45:18;;;;;;;8.98;8.02;;;25.50;99.90;;;;;;5100158;28;20190;-44
2021/07/13 09:47:45;;;;;;;9.15;8.38;;;25.60;99.90;;;;;;5085869;28;20574;-47
2021/07/13 09:50:14;;;;;;;9.38;8.57;;;25.60;99.90;;;;;;5097189;28;20320;-51
2021/07/13 09:52:40;;;;;;;9.52;8.68;;;25.60;99.90;;;;;;5091539;28;20218;-43
2021/07/13 09:55:18;;;;;;;9.80;8.82;;;25.60;99.90;;;;;;5096422;28;20305;-43
2021/07/13 09:57:45;;;;;;;8.50;7.80;;;25.60;99.90;;;;;;5088620;28;20853;-48
2021/07/13 10:00:12;;;;;;;8.45;7.75;;;25.80;99.90;;;;;;5085165;28;20198;-51
2021/07/13 10:02:40;;;;;;;7.63;7.03;;;25.80;99.90;;;;;;5078163;28;20709;-46
2021/07/13 10:05:07;;;;;;;8.45;7.60;;;25.90;99.90;;;;;;5097846;28;20209;-48
2021/07/13 10:07:35;;;;;;;7.55;6.97;;;25.80;99.90;;;;;;5088358;28;20217;-45
2021/07/13 10:10:04;;;;;;;7.55;7.03;;;25.70;99.90;;;;;;5100022;28;20212;-46
2021/07/13 10:12:32;;;;;;;7.35;6.85;;;25.70;99.90;;;;;;5103307;28;20196;-44
2021/07/13 10:15:00;;;;;;;7.25;6.65;;;25.80;99.90;;;;;;5086245;28;20386;-45
2021/07/13 10:17:29;;;;;;;7.90;7.30;;;25.80;99.90;;;;;;5080155;28;20238;-45
2021/07/13 10:19:58;;;;;;;7.55;6.85;;;25.90;99.90;;;;;;5084218;28;20373;-49
2021/07/13 10:22:26;;;;;;;7.63;7.03;;;25.80;99.90;;;;;;5090387;28;20222;-43
2021/07/13 10:24:56;;;;;;;7.55;7.05;;;25.80;99.90;;;;;;5098092;27;20682;-48
2021/07/13 10:27:28;;;;;;;8.52;7.88;;;25.80;99.90;;;;;;5103441;28;20662;-44
2021/07/13 10:29:56;;;;;;;7.20;6.60;;;25.80;99.90;;;;;;5090590;28;20406;-47
2021/07/13 10:32:40;;;;;;;6.95;6.30;;;25.80;99.90;;;;;;5085212;28;20663;-44
2021/07/13 10:35:23;;;;;;;8.07;7.32;;;26.00;99.90;;;;;;5085892;28;20595;-47
2021/07/13 10:37:52;;;;;;;7.97;7.47;;;26.10;99.90;;;;;;5095540;28;20474;-45
2021/07/13 10:40:35;;;;;;;7.68;7.03;;;26.30;99.90;;;;;;5092639;28;20209;-43
2021/07/13 10:43:04;;;;;;;6.75;6.35;;;26.40;99.90;;;;;;5084698;28;20218;-45
2021/07/13 10:45:33;;;;;;;6.88;6.38;;;26.60;99.90;;;;;;5089449;28;20197;-43
2021/07/13 10:48:09;;;;;;;6.40;6.00;;;26.60;99.90;;;;;;5100607;28;20267;-47
2021/07/13 10:50:48;;;;;;;6.68;6.28;;;26.80;99.90;;;;;;5085061;28;20197;-47
2021/07/13 10:53:21;;;;;;;7.07;6.57;;;26.70;99.90;;;;;;5098510;28;20224;-45
2021/07/13 10:56:04;;;;;;;7.88;6.25;;;26.70;99.90;;;;;;5094722;28;20280;-46
2021/07/13 10:58:37;;;;;;;7.18;6.57;;;26.80;99.90;;;;;;5093857;28;20708;-43
2021/07/13 11:01:08;;;;;;;7.03;6.53;;;26.80;99.90;;;;;;5091843;28;20190;-46
2021/07/13 11:04:01;;;;;;;7.28;6.80;;;26.70;99.90;;;;;;5096530;28;20552;-44
2021/07/13 11:06:46;;;;;;;8.23;7.63;;;26.80;99.90;;;;;;5086625;28;20213;-45
2021/07/13 11:09:38;;;;;;;6.50;5.95;;;26.80;99.90;;;;;;5097859;28;20276;-47
2021/07/13 11:12:16;;;;;;;6.95;6.38;;;26.70;99.90;;;;;;5094137;28;20201;-44
2021/07/13 11:15:00;;;;;;;6.95;6.45;;;26.80;99.90;;;;;;5094854;28;20206;-47
2021/07/13 11:17:32;;;;;;;6.80;6.13;;;27.10;99.90;;;;;;5089540;28;20193;-46
2021/07/13 11:20:09;;;;;;;6.80;6.35;;;27.30;99.90;;;;;;5089158;28;20594;-49
2021/07/13 11:22:39;;;;;;;6.80;6.25;;;27.30;99.90;;;;;;5084497;28;20217;-43
2021/07/13 11:25:06;;;;;;;7.18;6.47;;;27.30;99.90;;;;;;5096343;28;20241;-44
2021/07/13 11:27:35;;;;;;;6.85;6.28;;;27.30;99.90;;;;;;5076114;28;20198;-43
2021/07/13 11:30:01;;;;;;;6.70;6.15;;;27.30;99.90;;;;;;5094836;28;20200;-47
2021/07/13 11:32:29;;;;;;;7.32;6.82;;;27.50;99.90;;;;;;5096764;28;20612;-44
2021/07/13 11:34:56;;;;;;;7.35;6.82;;;27.60;99.90;;;;;;5099358;28;20184;-45
2021/07/13 11:37:24;;;;;;;6.82;6.25;;;27.50;99.90;;;;;;5088929;28;20216;-45
2021/07/13 11:39:59;;;;;;;6.55;5.95;;;27.40;99.90;;;;;;5097868;28;20519;-50
2021/07/13 11:42:25;;;;;;;5.75;5.38;;;27.50;99.90;;;;;;5077789;28;20666;-44
2021/07/13 11:45:02;;;;;;;6.57;6.10;;;27.50;99.90;;;;;;5080965;28;20581;-47
2021/07/13 11:47:30;;;;;;;6.50;5.97;;;27.50;99.90;;;;;;5099712;28;20682;-45
2021/07/13 11:49:56;;;;;;;7.45;6.85;;;27.50;99.90;;;;;;5091337;28;20484;-48
2021/07/13 11:52:24;;;;;;;6.60;6.00;;;27.70;99.90;;;;;;5079855;28;20207;-46
2021/07/13 11:54:56;;;;;;;6.97;6.57;;;27.70;99.90;;;;;;5096720;28;20189;-47
2021/07/13 11:57:22;;;;;;;6.80;6.25;;;27.60;99.90;;;;;;5087277;28;20267;-44
2021/07/13 11:59:49;;;;;;;6.50;6.10;;;27.50;99.90;;;;;;5082082;28;20412;-44
2021/07/13 12:02:16;;;;;;;6.07;5.68;;;27.60;99.90;;;;;;5102944;28;20677;-47
2021/07/13 12:04:46;;;;;;;6.85;6.35;;;27.80;99.90;;;;;;5098166;28;20309;-49
2021/07/13 12:07:14;;;;;;;6.43;6.00;;;27.80;99.90;;;;;;5100090;28;20280;-48
2021/07/13 12:09:42;;;;;;;6.20;5.80;;;27.80;99.90;;;;;;5084452;28;20212;-44
2021/07/13 12:12:10;;;;;;;6.00;5.60;;;27.60;99.90;;;;;;5095179;28;20201;-47
2021/07/13 12:14:39;;;;;;;5.93;5.43;;;27.50;99.90;;;;;;5073839;28;20561;-48
2021/07/13 12:17:07;;;;;;;6.05;5.53;;;27.50;99.90;;;;;;5092676;28;20194;-46
2021/07/13 12:19:35;;;;;;;5.88;5.47;;;27.50;99.90;;;;;;5092366;28;20665;-47
2021/07/13 12:22:04;;;;;;;6.07;5.57;;;27.50;99.90;;;;;;5098611;28;20193;-44
2021/07/13 12:24:33;;;;;;;6.03;5.63;;;27.50;99.90;;;;;;5087698;28;20458;-48
2021/07/13 12:27:02;;;;;;;6.03;5.47;;;27.50;99.90;;;;;;5100114;28;20209;-44
2021/07/13 12:29:38;;;;;;;4.95;4.65;;;27.50;99.90;;;;;;5094080;28;20426;-48
2021/07/13 12:32:09;;;;;;;5.57;5.20;;;27.60;99.90;;;;;;5096219;28;20193;-45
2021/07/13 12:34:42;;;;;;;5.65;5.25;;;27.80;99.90;;;;;;5098514;28;20310;-51
2021/07/13 12:37:13;;;;;;;5.88;5.38;;;28.00;99.90;;;;;;5091073;28;20205;-45
2021/07/13 12:39:42;;;;;;;5.60;5.30;;;28.10;99.90;;;;;;5087206;28;20228;-44
2021/07/13 12:42:12;;;;;;;5.78;5.45;;;28.10;99.90;;;;;;5097638;28;20201;-49